Time;durP1;ratioP1;P1;durP2;ratioP2;P2;SDS_P1;SDS_P2;PMS_P1;PMS_P2;Temp;Humidity;BMP_temperature;BMP_pressure;BME280_temperature;BME280_humidity;BME280_pressure;Samples;Min_cycle;Max_cycle;Signal;HPM_P1;HPM_P2
2021/11/01 00:00:33;;;;;;;23.83;18.83;;;;;;;;;;6248804;28;20136;-65
2021/11/01 00:03:34;;;;;;;25.83;19.33;;;;;;;;;;6253790;28;20503;-65
2021/11/01 00:06:36;;;;;;;28.80;21.08;;;;;;;;;;6249976;28;20918;-65
2021/11/01 00:09:37;;;;;;;29.90;20.98;;;;;;;;;;6265180;28;20498;-65
2021/11/01 00:12:39;;;;;;;30.08;21.55;;;;;;;;;;6256538;28;20048;-65
2021/11/01 00:15:42;;;;;;;31.85;21.45;;;;;;;;;;6248221;28;20114;-65
2021/11/01 00:18:44;;;;;;;28.20;20.23;;;;;;;;;;6261005;28;20064;-65
2021/11/01 00:21:45;;;;;;;28.23;19.80;;;;;;;;;;6255444;28;20099;-65
2021/11/01 00:24:46;;;;;;;27.42;19.42;;;;;;;;;;6263490;28;20179;-65
2021/11/01 00:27:48;;;;;;;29.20;20.52;;;;;;;;;;6251533;28;20041;-65
2021/11/01 00:30:52;;;;;;;29.92;20.23;;;;;;;;;;6247306;28;20093;-65
2021/11/01 00:33:54;;;;;;;;;;;;;;;;;;6262525;28;20045;-65
2021/11/01 00:36:55;;;;;;;26.67;20.50;;;;;;;;;;6251691;28;20450;-65
2021/11/01 00:39:58;;;;;;;29.58;20.95;;;;;;;;;;6261025;28;20045;-65
2021/11/01 00:43:03;;;;;;;29.37;20.17;;;;;;;;;;6248833;28;20045;-65
2021/11/01 00:46:05;;;;;;;29.52;21.25;;;;;;;;;;6243820;28;21013;-65
2021/11/01 00:49:07;;;;;;;27.73;19.67;;;;;;;;;;6259168;28;20227;-65
2021/11/01 00:52:09;;;;;;;26.67;20.23;;;;;;;;;;6242679;28;20049;-65
2021/11/01 00:55:18;;;;;;;28.30;20.17;;;;;;;;;;6244641;28;20045;-66
2021/11/01 00:58:21;;;;;;;26.50;20.23;;;;;;;;;;6252776;28;20044;-65
2021/11/01 01:01:24;;;;;;;28.38;20.02;;;;;;;;;;6234444;28;20060;-65
2021/11/01 01:04:26;;;;;;;27.98;20.45;;;;;;;;;;6247002;28;20045;-65
2021/11/01 01:07:28;;;;;;;25.63;19.92;;;;;;;;;;6243805;28;20045;-65
2021/11/01 01:10:29;;;;;;;27.20;19.80;;;;;;;;;;6245830;28;20053;-65
2021/11/01 01:13:36;;;;;;;25.80;19.40;;;;;;;;;;6261202;28;20065;-65
2021/11/01 01:16:42;;;;;;;27.17;20.30;;;;;;;;;;6241913;28;20717;-65
2021/11/01 01:19:50;;;;;;;26.55;19.83;;;;;;;;;;6259254;28;20051;-65
2021/11/01 01:22:51;;;;;;;28.35;20.17;;;;;;;;;;6244165;28;20064;-65
2021/11/01 01:25:56;;;;;;;29.75;20.27;;;;;;;;;;6251506;28;20047;-65
2021/11/01 01:28:57;;;;;;;28.33;20.35;;;;;;;;;;6261781;28;20182;-65
2021/11/01 01:32:00;;;;;;;29.38;21.33;;;;;;;;;;6240464;28;20045;-67
2021/11/01 01:35:02;;;;;;;29.48;20.60;;;;;;;;;;6257807;28;20041;-67
2021/11/01 01:38:03;;;;;;;28.63;19.83;;;;;;;;;;6250202;28;20048;-67
2021/11/01 01:41:11;;;;;;;26.67;19.55;;;;;;;;;;6249168;28;20068;-67
2021/11/01 01:44:13;;;;;;;28.35;21.20;;;;;;;;;;6258566;28;20102;-67
2021/11/01 01:47:15;;;;;;;30.38;22.77;;;;;;;;;;6240073;28;20105;-67
2021/11/01 01:50:17;;;;;;;28.83;22.83;;;;;;;;;;6252526;28;20485;-67
2021/11/01 01:53:21;;;;;;;33.08;24.23;;;;;;;;;;6256571;28;20045;-67
2021/11/01 01:56:23;;;;;;;34.75;24.67;;;;;;;;;;6246832;28;20357;-65
2021/11/01 01:59:24;;;;;;;31.27;23.58;;;;;;;;;;6262013;28;20045;-65
2021/11/01 02:02:27;;;;;;;32.70;24.77;;;;;;;;;;6241561;28;20194;-65
2021/11/01 02:05:37;;;;;;;37.30;26.55;;;;;;;;;;6246945;28;20041;-65
2021/11/01 02:08:42;;;;;;;35.17;25.95;;;;;;;;;;6260813;28;20056;-65
2021/11/01 02:11:47;;;;;;;36.40;26.65;;;;;;;;;;6251528;28;20052;-66
2021/11/01 02:14:50;;;;;;;32.65;25.63;;;;;;;;;;6263354;28;20485;-65
2021/11/01 02:17:56;;;;;;;34.47;25.33;;;;;;;;;;6244088;28;20090;-65
2021/11/01 02:21:05;;;;;;;33.53;25.38;;;;;;;;;;6251398;28;20779;-66
2021/11/01 02:24:07;;;;;;;33.88;23.92;;;;;;;;;;6258269;28;20045;-65
2021/11/01 02:27:12;;;;;;;37.85;27.58;;;;;;;;;;6254933;28;20138;-65
2021/11/01 02:30:14;;;;;;;32.40;25.48;;;;;;;;;;6257846;28;20064;-65
2021/11/01 02:33:16;;;;;;;36.03;26.52;;;;;;;;;;6254567;28;20091;-64
2021/11/01 02:36:18;;;;;;;36.20;26.23;;;;;;;;;;6250367;28;20041;-64
2021/11/01 02:39:20;;;;;;;39.15;27.42;;;;;;;;;;6265732;28;20047;-63
2021/11/01 02:42:24;;;;;;;35.45;25.40;;;;;;;;;;6254156;28;20084;-66
2021/11/01 02:45:27;;;;;;;34.83;25.08;;;;;;;;;;6256283;28;20033;-66
2021/11/01 02:48:28;;;;;;;37.28;26.60;;;;;;;;;;6257707;28;20057;-66
2021/11/01 02:51:30;;;;;;;36.42;26.23;;;;;;;;;;6250035;28;20067;-66
2021/11/01 02:54:32;;;;;;;38.20;26.60;;;;;;;;;;6264002;28;20548;-65
2021/11/01 02:57:35;;;;;;;36.58;25.77;;;;;;;;;;6247026;28;20060;-66
2021/11/01 03:00:36;;;;;;;34.47;26.35;;;;;;;;;;6250222;28;20226;-66
2021/11/01 03:03:39;;;;;;;32.55;25.00;;;;;;;;;;6255481;28;20041;-66
2021/11/01 03:06:40;;;;;;;35.60;25.70;;;;;;;;;;6248052;28;20053;-66
2021/11/01 03:09:45;;;;;;;38.33;28.05;;;;;;;;;;6263227;28;20040;-66
2021/11/01 03:12:49;;;;;;;36.85;27.98;;;;;;;;;;6254484;28;20053;-66
2021/11/01 03:15:50;;;;;;;;;;;;;;;;;;6251845;28;20123;-66
2021/11/01 03:19:03;;;;;;;36.35;25.52;;;;;;;;;;6259979;28;19935;-66
2021/11/01 03:22:07;;;;;;;38.53;26.90;;;;;;;;;;6250536;28;20073;-66
2021/11/01 03:25:13;;;;;;;35.55;26.83;;;;;;;;;;6258423;28;20044;-66
2021/11/01 03:28:18;;;;;;;32.83;25.38;;;;;;;;;;6258494;28;20495;-66
2021/11/01 03:31:21;;;;;;;32.22;23.48;;;;;;;;;;6249869;28;20049;-65
2021/11/01 03:34:23;;;;;;;31.30;22.80;;;;;;;;;;6256240;28;20033;-65
2021/11/01 03:37:25;;;;;;;32.85;22.73;;;;;;;;;;6250328;28;20251;-65
2021/11/01 03:40:28;;;;;;;32.67;24.70;;;;;;;;;;6256002;28;20216;-65
2021/11/01 03:43:36;;;;;;;38.58;25.08;;;;;;;;;;6263011;28;20619;-64
2021/11/01 03:46:41;;;;;;;35.63;24.52;;;;;;;;;;6243199;28;20048;-65
2021/11/01 03:49:50;;;;;;;35.45;24.30;;;;;;;;;;6258829;28;20052;-64
2021/11/01 03:52:52;;;;;;;32.88;23.92;;;;;;;;;;6252335;28;20045;-64
2021/11/01 03:55:53;;;;;;;35.10;24.98;;;;;;;;;;6253703;28;20090;-64
2021/11/01 03:58:57;;;;;;;36.42;26.55;;;;;;;;;;6264390;28;20132;-64
2021/11/01 04:01:58;;;;;;;36.70;25.67;;;;;;;;;;6248500;28;20171;-64
2021/11/01 04:05:01;;;;;;;34.90;24.63;;;;;;;;;;6257159;28;20073;-65
2021/11/01 04:08:02;;;;;;;35.67;25.38;;;;;;;;;;6253185;28;20126;-64
2021/11/01 04:11:04;;;;;;;34.13;23.85;;;;;;;;;;6255149;28;20358;-64
2021/11/01 04:14:12;;;;;;;34.63;24.75;;;;;;;;;;6264590;28;20097;-64
2021/11/01 04:17:22;;;;;;;34.85;24.88;;;;;;;;;;6246210;28;20053;-65
2021/11/01 04:20:37;;;;;;;37.28;24.88;;;;;;;;;;6250834;28;20037;-65
2021/11/01 04:23:38;;;;;;;34.80;23.83;;;;;;;;;;6261978;28;20128;-65
2021/11/01 04:26:42;;;;;;;32.08;23.63;;;;;;;;;;6251428;28;20187;-65
2021/11/01 04:29:44;;;;;;;34.95;24.83;;;;;;;;;;6261821;28;20115;-64
2021/11/01 04:32:50;;;;;;;37.42;26.33;;;;;;;;;;6243937;28;20151;-65
2021/11/01 04:35:51;;;;;;;41.33;28.15;;;;;;;;;;6248134;28;20611;-65
2021/11/01 04:39:02;;;;;;;40.10;27.80;;;;;;;;;;6256778;28;20195;-65
2021/11/01 04:55:21;;;;;;;37.97;26.48;;;;;;;;;;6246329;28;20045;-64
2021/11/01 04:58:23;;;;;;;43.75;29.42;;;;;;;;;;6253101;28;20037;-64
2021/11/01 05:01:31;;;;;;;34.67;26.33;;;;;;;;;;6243117;28;20055;-64
2021/11/01 05:04:34;;;;;;;37.58;26.98;;;;;;;;;;6258298;28;22255;-64
2021/11/01 05:07:36;;;;;;;35.65;26.55;;;;;;;;;;6248872;28;20041;-65
2021/11/01 05:10:39;;;;;;;35.60;26.73;;;;;;;;;;6252144;28;20052;-65
2021/11/01 05:13:40;;;;;;;42.40;28.38;;;;;;;;;;6259428;28;20516;-65
2021/11/01 05:16:52;;;;;;;42.20;28.63;;;;;;;;;;6244752;28;20168;-65
2021/11/01 05:20:00;;;;;;;45.63;30.25;;;;;;;;;;6259067;28;20049;-64
2021/11/01 05:23:14;;;;;;;52.97;36.50;;;;;;;;;;6247289;28;20480;-64
2021/11/01 05:26:20;;;;;;;;;;;;;;;;;;6243775;28;20064;-65
2021/11/01 05:29:23;;;;;;;55.92;37.30;;;;;;;;;;6262409;28;19921;-64
2021/11/01 05:32:28;;;;;;;51.70;34.22;;;;;;;;;;6241874;28;20433;-64
2021/11/01 05:35:30;;;;;;;47.25;33.50;;;;;;;;;;6250531;28;20037;-65
2021/11/01 05:38:33;;;;;;;49.80;32.90;;;;;;;;;;6260244;28;20163;-65
2021/11/01 05:41:35;;;;;;;40.23;28.87;;;;;;;;;;6248642;28;20053;-64
2021/11/01 05:44:36;;;;;;;40.13;29.42;;;;;;;;;;6261497;28;20798;-64
2021/11/01 05:47:41;;;;;;;36.22;27.08;;;;;;;;;;6242855;28;20056;-65
2021/11/01 05:50:43;;;;;;;37.38;25.38;;;;;;;;;;6245711;28;20052;-65
2021/11/01 05:53:46;;;;;;;37.45;26.08;;;;;;;;;;6259868;28;20179;-65
2021/11/01 05:56:52;;;;;;;34.03;24.42;;;;;;;;;;6245294;28;20198;-65
2021/11/01 06:00:15;;;;;;;34.13;24.73;;;;;;;;;;6260338;28;20392;-64
2021/11/01 06:03:20;;;;;;;35.45;25.77;;;;;;;;;;6251436;28;20060;-64
2021/11/01 06:06:39;;;;;;;42.58;27.40;;;;;;;;;;6247690;28;20045;-65
2021/11/01 06:09:57;;;;;;;44.17;29.75;;;;;;;;;;6259236;28;20048;-64
2021/11/01 06:16:17;;;;;;;52.67;35.58;;;;;;;;;;6246418;28;20057;-65
2021/11/01 06:19:20;;;;;;;50.50;33.08;;;;;;;;;;6256292;28;20071;-64
2021/11/01 06:22:22;;;;;;;47.58;31.92;;;;;;;;;;6251385;28;20045;-65
2021/11/01 06:25:24;;;;;;;50.50;33.20;;;;;;;;;;6257090;28;20522;-65
2021/11/01 06:28:25;;;;;;;48.08;32.70;;;;;;;;;;6261371;28;20533;-64
2021/11/01 06:31:30;;;;;;;50.63;34.50;;;;;;;;;;6244202;28;20073;-65
2021/11/01 06:44:46;;;;;;;54.72;37.03;;;;;;;;;;6258037;28;20041;-65
2021/11/01 06:54:41;;;;;;;60.42;36.00;;;;;;;;;;6258936;28;20037;-65
2021/11/01 06:57:56;;;;;;;68.53;38.55;;;;;;;;;;6251369;28;20401;-65
2021/11/01 07:17:43;;;;;;;83.05;46.45;;;;;;;;;;6233916;28;20041;-65
2021/11/01 07:20:53;;;;;;;83.25;46.38;;;;;;;;;;6245388;28;20041;-65
2021/11/01 07:24:29;;;;;;;81.25;45.47;;;;;;;;;;6246653;28;20072;-65
2021/11/01 08:21:08;;;;;;;98.68;42.95;;;;;;;;;;6211292;28;20044;-67
2021/11/01 08:27:57;;;;;;;93.65;43.80;;;;;;;;;;6250846;28;20057;-66
2021/11/01 08:35:05;;;;;;;96.43;42.88;;;;;;;;;;6259362;28;20483;-69
2021/11/01 09:01:45;;;;;;;91.03;37.28;;;;;;;;;;6244917;28;20044;-65
2021/11/01 09:05:09;;;;;;;91.30;38.05;;;;;;;;;;6244686;28;20047;-65
2021/11/01 09:09:44;;;;;;;83.45;37.60;;;;;;;;;;6253294;28;20060;-65
2021/11/01 09:22:09;;;;;;;74.32;32.63;;;;;;;;;;6248426;28;20496;-65
2021/11/01 09:25:27;;;;;;;67.10;32.58;;;;;;;;;;6246657;28;20753;-66
2021/11/01 09:28:31;;;;;;;74.75;32.65;;;;;;;;;;6251956;28;20056;-64
2021/11/01 09:38:28;;;;;;;65.35;31.00;;;;;;;;;;6253885;28;20054;-64
2021/11/01 09:41:30;;;;;;;80.68;30.58;;;;;;;;;;6249839;28;20049;-63
2021/11/01 09:44:32;;;;;;;66.53;30.50;;;;;;;;;;6248954;28;20054;-63
2021/11/01 09:47:36;;;;;;;78.20;28.88;;;;;;;;;;6214943;28;20991;-63
2021/11/01 09:50:37;;;;;;;69.90;28.48;;;;;;;;;;6241965;28;20428;-63
2021/11/01 09:53:42;;;;;;;62.25;28.52;;;;;;;;;;6251465;28;20056;-63
2021/11/01 09:56:47;;;;;;;60.17;26.67;;;;;;;;;;6246195;28;20048;-64
2021/11/01 09:59:48;;;;;;;57.05;24.95;;;;;;;;;;6255026;28;20049;-64
2021/11/01 10:02:51;;;;;;;67.55;26.17;;;;;;;;;;6243725;28;20059;-65
2021/11/01 10:05:54;;;;;;;54.93;25.67;;;;;;;;;;6246839;28;20060;-64
2021/11/01 10:08:58;;;;;;;51.03;26.58;;;;;;;;;;6251702;28;21047;-63
2021/11/01 10:11:59;;;;;;;53.05;24.40;;;;;;;;;;6247026;28;20132;-64
2021/11/01 10:17:33;;;;;;;44.00;24.05;;;;;;;;;;6257920;28;20120;-64
2021/11/01 10:18:22;;;;;;;59.45;23.92;;;;;;;;;;6247249;28;20095;-64
2021/11/01 10:21:23;;;;;;;47.78;25.00;;;;;;;;;;6245820;28;20041;-64
2021/11/01 10:24:28;;;;;;;46.42;23.90;;;;;;;;;;6249435;28;20424;-64
2021/11/01 10:27:31;;;;;;;39.22;24.58;;;;;;;;;;6241371;28;20072;-64
2021/11/01 10:30:35;;;;;;;50.20;23.65;;;;;;;;;;6249337;28;20098;-64
2021/11/01 10:33:42;;;;;;;48.58;22.92;;;;;;;;;;6255033;28;20534;-64
2021/11/01 10:36:46;;;;;;;40.05;23.88;;;;;;;;;;6248741;28;20060;-64
2021/11/01 10:39:56;;;;;;;42.23;24.13;;;;;;;;;;6262782;28;20053;-64
2021/11/01 10:43:09;;;;;;;38.15;22.17;;;;;;;;;;6249537;28;20079;-64
2021/11/01 10:56:54;;;;;;;41.08;21.65;;;;;;;;;;6252225;28;20041;-64
2021/11/01 11:13:14;;;;;;;30.58;17.65;;;;;;;;;;6239480;28;20064;-64
2021/11/01 11:16:30;;;;;;;29.45;17.38;;;;;;;;;;6227920;28;20044;-64
2021/11/01 11:19:46;;;;;;;27.75;16.20;;;;;;;;;;6261795;28;20054;-64
2021/11/01 11:23:21;;;;;;;25.85;16.98;;;;;;;;;;6236316;28;20048;-64
2021/11/01 11:26:42;;;;;;;26.20;16.67;;;;;;;;;;6239119;28;20168;-64
2021/11/01 11:47:09;;;;;;;25.35;16.05;;;;;;;;;;6243660;27;20645;-64
2021/11/01 11:50:12;;;;;;;24.23;15.50;;;;;;;;;;6230746;28;20045;-62
2021/11/01 11:53:15;;;;;;;28.30;15.95;;;;;;;;;;6254603;28;20056;-66
2021/11/01 11:56:16;;;;;;;28.20;16.92;;;;;;;;;;6254034;28;20061;-65
2021/11/01 11:59:18;;;;;;;27.30;16.77;;;;;;;;;;6255674;28;20049;-65
2021/11/01 12:02:35;;;;;;;25.60;16.08;;;;;;;;;;6235771;28;20119;-66
2021/11/01 12:05:38;;;;;;;27.75;16.50;;;;;;;;;;6242622;28;20056;-64
2021/11/01 12:08:42;;;;;;;27.55;16.73;;;;;;;;;;6264701;28;20400;-64
2021/11/01 12:12:08;;;;;;;28.63;16.58;;;;;;;;;;6255050;28;20049;-64
2021/11/01 12:18:30;;;;;;;26.52;16.92;;;;;;;;;;6247946;28;20127;-66
2021/11/01 12:21:32;;;;;;;25.33;15.47;;;;;;;;;;6245632;28;20048;-66
2021/11/01 12:24:34;;;;;;;28.13;15.35;;;;;;;;;;6265754;28;20053;-65
2021/11/01 12:27:38;;;;;;;23.42;14.10;;;;;;;;;;6251331;28;20052;-65
2021/11/01 12:30:45;;;;;;;21.48;14.35;;;;;;;;;;6214396;28;20500;-65
2021/11/01 12:33:55;;;;;;;22.00;15.25;;;;;;;;;;6227473;28;20102;-66
2021/11/01 12:37:01;;;;;;;23.48;15.30;;;;;;;;;;6219722;28;20714;-66
2021/11/01 12:40:07;;;;;;;21.90;16.67;;;;;;;;;;6233003;28;20072;-66
2021/11/01 12:43:24;;;;;;;25.35;17.92;;;;;;;;;;6232481;28;20104;-66
2021/11/01 12:59:43;;;;;;;26.05;17.00;;;;;;;;;;6200472;28;20126;-66
2021/11/01 13:02:46;;;;;;;27.67;17.02;;;;;;;;;;6191216;28;20080;-66
2021/11/01 13:05:54;;;;;;;24.47;17.23;;;;;;;;;;6210413;28;20102;-66
2021/11/01 13:08:58;;;;;;;29.42;18.15;;;;;;;;;;6208033;28;20039;-66
2021/11/01 13:12:17;;;;;;;32.00;18.33;;;;;;;;;;6186246;28;20588;-66
2021/11/01 13:18:34;;;;;;;31.15;18.20;;;;;;;;;;6159525;28;20061;-67
2021/11/01 13:21:44;;;;;;;37.25;19.15;;;;;;;;;;6208268;28;20054;-67
2021/11/01 13:24:51;;;;;;;34.90;20.02;;;;;;;;;;6207776;28;20049;-66
2021/11/01 13:28:02;;;;;;;40.55;20.85;;;;;;;;;;6209173;28;20069;-67
2021/11/01 13:34:57;;;;;;;33.85;20.27;;;;;;;;;;6217871;28;20062;-66
2021/11/01 13:38:02;;;;;;;36.88;19.20;;;;;;;;;;6210396;28;20491;-66
2021/11/01 13:41:08;;;;;;;30.98;19.42;;;;;;;;;;6213070;28;20058;-66
2021/11/01 13:44:11;;;;;;;38.92;19.25;;;;;;;;;;6219351;28;20089;-66
2021/11/01 13:47:16;;;;;;;32.13;19.42;;;;;;;;;;6201984;28;20497;-66
2021/11/01 13:50:20;;;;;;;30.83;18.77;;;;;;;;;;6202849;28;20050;-66
2021/11/01 13:53:24;;;;;;;38.65;19.35;;;;;;;;;;6218202;28;20485;-65
2021/11/01 13:56:28;;;;;;;29.70;18.33;;;;;;;;;;6213829;28;20050;-66
2021/11/01 13:59:41;;;;;;;32.45;18.88;;;;;;;;;;6220664;28;20054;-66
2021/11/01 14:12:50;;;;;;;38.38;21.50;;;;;;;;;;6208589;28;20054;-65
2021/11/01 14:16:16;;;;;;;37.70;22.02;;;;;;;;;;6197053;28;20513;-67
2021/11/01 14:29:21;;;;;;;39.67;25.02;;;;;;;;;;6220127;28;20057;-67
2021/11/01 14:36:05;;;;;;;42.25;27.40;;;;;;;;;;6194035;28;20096;-66
2021/11/01 14:59:33;;;;;;;50.17;28.23;;;;;;;;;;6221713;28;20050;-67
2021/11/01 15:19:21;;;;;;;50.97;29.40;;;;;;;;;;6184590;28;20050;-66
2021/11/01 15:36:00;;;;;;;51.33;31.05;;;;;;;;;;6184590;28;20058;-67
2021/11/01 15:39:17;;;;;;;55.22;31.10;;;;;;;;;;6191563;28;20053;-66
2021/11/01 16:18:50;;;;;;;36.00;23.80;;;;;;;;;;6194596;28;20557;-65
2021/11/01 16:21:53;;;;;;;37.83;25.42;;;;;;;;;;6192951;28;20180;-67
2021/11/01 16:24:55;;;;;;;33.87;23.17;;;;;;;;;;6200124;28;20070;-67
2021/11/01 16:27:56;;;;;;;36.83;24.20;;;;;;;;;;6191664;28;20197;-68
2021/11/01 16:31:17;;;;;;;34.00;22.65;;;;;;;;;;6189872;28;20511;-67
2021/11/01 16:34:21;;;;;;;34.10;22.70;;;;;;;;;;6210752;28;20049;-67
2021/11/01 16:37:28;;;;;;;31.20;21.17;;;;;;;;;;6220486;28;20057;-67
2021/11/01 16:40:29;;;;;;;29.13;19.23;;;;;;;;;;6205844;28;20062;-67
2021/11/01 16:43:31;;;;;;;27.77;18.27;;;;;;;;;;6214220;28;20046;-67
2021/11/01 16:46:33;;;;;;;24.38;17.27;;;;;;;;;;6183562;28;20064;-67
2021/11/01 16:49:34;;;;;;;24.45;17.63;;;;;;;;;;6215404;28;20685;-67
2021/11/01 16:52:37;;;;;;;21.77;15.90;;;;;;;;;;6211883;28;20042;-67
2021/11/01 16:55:40;;;;;;;20.08;14.90;;;;;;;;;;6213056;28;20073;-67
2021/11/01 16:58:45;;;;;;;20.05;14.27;;;;;;;;;;6221785;28;20646;-67
2021/11/01 17:01:52;;;;;;;17.25;12.50;;;;;;;;;;6201432;28;20525;-67
2021/11/01 17:04:58;;;;;;;18.27;11.90;;;;;;;;;;6219219;28;20042;-67
2021/11/01 17:21:50;;;;;;;16.95;11.13;;;;;;;;;;6193591;28;20065;-67
2021/11/01 17:24:57;;;;;;;15.18;11.43;;;;;;;;;;6204707;28;20042;-67
2021/11/01 17:28:23;;;;;;;12.60;8.57;;;;;;;;;;6206304;28;20264;-67
2021/11/01 17:35:05;;;;;;;10.90;8.13;;;;;;;;;;6207080;28;20045;-66
2021/11/01 17:38:40;;;;;;;9.52;7.07;;;;;;;;;;6205990;28;20057;-67
2021/11/01 18:41:47;;;;;;;7.10;5.28;;;;;;;;;;6187959;28;20050;-67
2021/11/01 18:51:40;;;;;;;6.65;4.95;;;;;;;;;;6197119;28;20137;-67
2021/11/01 18:54:42;;;;;;;6.22;4.97;;;;;;;;;;6205091;28;20076;-67
2021/11/01 18:57:46;;;;;;;7.10;5.45;;;;;;;;;;6201961;28;20080;-66
2021/11/01 19:00:47;;;;;;;5.72;4.43;;;;;;;;;;6196571;28;20053;-66
2021/11/01 19:03:53;;;;;;;5.45;4.90;;;;;;;;;;6215242;28;20095;-65
2021/11/01 19:07:00;;;;;;;10.15;4.55;;;;;;;;;;6210621;28;20058;-67
2021/11/01 19:10:11;;;;;;;6.35;4.90;;;;;;;;;;6212647;28;20053;-65
2021/11/01 19:13:52;;;;;;;5.32;4.18;;;;;;;;;;6229116;28;20136;-67
2021/11/01 20:03:59;;;;;;;14.50;11.27;;;;;;;;;;6210370;28;20472;-67
2021/11/01 20:13:55;;;;;;;17.92;12.13;;;;;;;;;;6215937;28;20092;-66
2021/11/01 21:27:03;;;;;;;17.98;11.52;;;;;;;;;;6208310;28;20041;-67
2021/11/01 21:30:06;;;;;;;15.52;11.77;;;;;;;;;;6217540;28;20065;-68
2021/11/01 21:33:09;;;;;;;16.67;12.82;;;;;;;;;;6203016;28;20073;-67
2021/11/01 21:36:13;;;;;;;18.55;14.02;;;;;;;;;;6204489;28;20493;-67
2021/11/01 21:39:14;;;;;;;18.38;13.68;;;;;;;;;;6214728;28;20042;-67
2021/11/01 21:42:16;;;;;;;22.48;14.85;;;;;;;;;;6206382;28;20089;-67
2021/11/01 21:45:17;;;;;;;19.48;14.98;;;;;;;;;;6205798;28;20399;-68
2021/11/01 21:48:20;;;;;;;21.23;14.88;;;;;;;;;;6210363;28;20498;-68
2021/11/01 21:51:22;;;;;;;18.80;13.95;;;;;;;;;;6210664;28;20049;-67
2021/11/01 21:54:28;;;;;;;17.50;13.90;;;;;;;;;;6217847;28;20046;-67
2021/11/01 21:57:34;;;;;;;20.90;14.40;;;;;;;;;;6201505;28;20062;-68
2021/11/01 22:00:46;;;;;;;17.88;12.95;;;;;;;;;;6200480;28;20029;-67
2021/11/01 22:17:15;;;;;;;16.33;11.18;;;;;;;;;;6191714;28;20046;-67
2021/11/01 22:20:20;;;;;;;13.77;9.23;;;;;;;;;;6199500;28;20042;-67
2021/11/01 22:23:32;;;;;;;14.88;11.00;;;;;;;;;;6215834;28;20058;-67
2021/11/01 22:26:47;;;;;;;14.07;10.38;;;;;;;;;;6208323;28;20115;-67
2021/11/01 22:39:51;;;;;;;15.73;11.98;;;;;;;;;;6216558;28;20053;-67
2021/11/01 22:42:58;;;;;;;17.00;12.05;;;;;;;;;;6209936;28;20046;-67
2021/11/01 22:46:12;;;;;;;16.58;12.75;;;;;;;;;;6200433;28;20494;-67
2021/11/01 22:56:12;;;;;;;19.77;14.40;;;;;;;;;;6210166;28;20054;-66
2021/11/01 22:59:14;;;;;;;19.90;14.57;;;;;;;;;;6221212;28;20049;-67
2021/11/01 23:02:15;;;;;;;20.42;14.15;;;;;;;;;;6192974;28;20072;-67
2021/11/01 23:05:32;;;;;;;21.88;15.18;;;;;;;;;;6209630;28;20046;-67
2021/11/01 23:31:49;;;;;;;22.00;15.82;;;;;;;;;;6176313;28;20046;-66
2021/11/01 23:34:51;;;;;;;22.45;16.83;;;;;;;;;;6209822;28;20081;-66
2021/11/01 23:37:52;;;;;;;25.75;17.40;;;;;;;;;;6192111;28;20038;-67
2021/11/01 23:40:55;;;;;;;21.98;16.90;;;;;;;;;;6204099;28;20042;-67
2021/11/01 23:43:57;;;;;;;22.50;16.50;;;;;;;;;;6212251;28;20061;-67
2021/11/01 23:46:58;;;;;;;22.88;15.45;;;;;;;;;;6203010;28;20429;-67
2021/11/01 23:50:00;;;;;;;23.52;16.60;;;;;;;;;;6214974;28;20052;-66
2021/11/01 23:53:06;;;;;;;24.27;16.67;;;;;;;;;;6204800;28;20095;-67
2021/11/01 23:56:09;;;;;;;29.02;17.55;;;;;;;;;;6196266;28;20042;-66
2021/11/01 23:59:11;;;;;;;29.97;18.57;;;;;;;;;;6207146;28;20054;-66
